sensor_id;sensor_type;location;lat;lon;timestamp;pressure;altitude;pressure_sealevel;temperature;humidity
13612;BME280;6877;51.436;6.774;2022-12-29T00:01:23;99930.44;;;9.77;100.00
13612;BME280;6877;51.436;6.774;2022-12-29T00:03:50;99928.31;;;9.60;100.00
13612;BME280;6877;51.436;6.774;2022-12-29T00:06:21;99913.06;;;9.45;100.00
13612;BME280;6877;51.436;6.774;2022-12-29T00:08:52;99921.19;;;9.34;100.00
13612;BME280;6877;51.436;6.774;2022-12-29T00:11:26;99918.78;;;9.26;100.00
13612;BME280;6877;51.436;6.774;2022-12-29T00:13:58;99900.63;;;9.22;100.00
13612;BME280;6877;51.436;6.774;2022-12-29T00:16:47;99909.44;;;9.18;100.00
13612;BME280;6877;51.436;6.774;2022-12-29T00:19:19;99911.16;;;9.19;100.00
13612;BME280;6877;51.436;6.774;2022-12-29T00:22:10;99899.03;;;9.16;100.00
13612;BME280;6877;51.436;6.774;2022-12-29T00:25:01;99893.81;;;9.16;100.00
13612;BME280;6877;51.436;6.774;2022-12-29T00:27:32;99898.09;;;9.19;100.00
13612;BME280;6877;51.436;6.774;2022-12-29T00:30:23;99898.03;;;9.22;100.00
13612;BME280;6877;51.436;6.774;2022-12-29T00:33:19;99888.25;;;9.30;100.00
13612;BME280;6877;51.436;6.774;2022-12-29T00:36:34;99892.50;;;9.33;100.00
13612;BME280;6877;51.436;6.774;2022-12-29T00:39:10;99884.75;;;9.29;100.00
13612;BME280;6877;51.436;6.774;2022-12-29T00:42:08;99866.53;;;9.28;100.00
13612;BME280;6877;51.436;6.774;2022-12-29T00:44:53;99873.34;;;9.34;100.00
13612;BME280;6877;51.436;6.774;2022-12-29T00:47:25;99867.28;;;9.33;100.00
13612;BME280;6877;51.436;6.774;2022-12-29T00:49:59;99876.84;;;9.33;100.00
13612;BME280;6877;51.436;6.774;2022-12-29T00:52:30;99871.69;;;9.29;100.00
13612;BME280;6877;51.436;6.774;2022-12-29T00:55:01;99860.41;;;9.29;100.00
13612;BME280;6877;51.436;6.774;2022-12-29T00:57:33;99870.06;;;9.27;100.00
13612;BME280;6877;51.436;6.774;2022-12-29T01:00:04;99851.78;;;9.27;100.00
13612;BME280;6877;51.436;6.774;2022-12-29T01:02:36;99864.94;;;9.22;100.00
13612;BME280;6877;51.436;6.774;2022-12-29T01:05:08;99851.88;;;9.22;100.00
13612;BME280;6877;51.436;6.774;2022-12-29T01:07:39;99846.63;;;9.24;100.00
13612;BME280;6877;51.436;6.774;2022-12-29T01:10:10;99858.69;;;9.28;100.00
13612;BME280;6877;51.436;6.774;2022-12-29T01:12:42;99856.00;;;9.31;100.00
13612;BME280;6877;51.436;6.774;2022-12-29T01:15:14;99848.94;;;9.35;100.00
13612;BME280;6877;51.436;6.774;2022-12-29T01:17:46;99853.22;;;9.37;100.00
13612;BME280;6877;51.436;6.774;2022-12-29T01:20:17;99849.63;;;9.41;100.00
13612;BME280;6877;51.436;6.774;2022-12-29T01:22:49;99854.00;;;9.41;100.00
13612;BME280;6877;51.436;6.774;2022-12-29T01:25:20;99851.25;;;9.45;100.00
13612;BME280;6877;51.436;6.774;2022-12-29T01:27:52;99846.97;;;9.43;100.00
13612;BME280;6877;51.436;6.774;2022-12-29T01:30:23;99842.63;;;9.43;100.00
13612;BME280;6877;51.436;6.774;2022-12-29T01:32:49;99831.06;;;9.52;100.00
13612;BME280;6877;51.436;6.774;2022-12-29T01:35:16;99834.34;;;9.59;100.00
13612;BME280;6877;51.436;6.774;2022-12-29T01:37:47;99829.97;;;9.59;100.00
13612;BME280;6877;51.436;6.774;2022-12-29T01:40:19;99828.22;;;9.60;100.00
13612;BME280;6877;51.436;6.774;2022-12-29T01:42:50;99844.78;;;9.59;100.00
13612;BME280;6877;51.436;6.774;2022-12-29T01:45:17;99818.59;;;9.60;100.00
13612;BME280;6877;51.436;6.774;2022-12-29T01:47:57;99822.53;;;9.75;100.00
13612;BME280;6877;51.436;6.774;2022-12-29T01:50:37;99822.91;;;9.91;100.00
13612;BME280;6877;51.436;6.774;2022-12-29T01:55:44;99814.13;;;9.93;100.00
13612;BME280;6877;51.436;6.774;2022-12-29T01:58:14;99813.06;;;9.99;100.00
13612;BME280;6877;51.436;6.774;2022-12-29T02:00:47;99792.13;;;10.01;99.63
13612;BME280;6877;51.436;6.774;2022-12-29T02:03:20;99803.16;;;10.10;98.60
13612;BME280;6877;51.436;6.774;2022-12-29T02:05:54;99823.25;;;10.08;98.03
13612;BME280;6877;51.436;6.774;2022-12-29T02:08:29;99818.91;;;10.09;98.15
13612;BME280;6877;51.436;6.774;2022-12-29T02:10:56;99819.78;;;10.08;98.72
13612;BME280;6877;51.436;6.774;2022-12-29T02:13:29;99825.94;;;10.05;98.43
13612;BME280;6877;51.436;6.774;2022-12-29T02:21:54;99816.38;;;10.06;97.71
13612;BME280;6877;51.436;6.774;2022-12-29T02:27:43;99808.00;;;10.21;95.75
13612;BME280;6877;51.436;6.774;2022-12-29T02:30:35;99804.34;;;10.28;95.56
13612;BME280;6877;51.436;6.774;2022-12-29T02:36:46;99805.50;;;10.18;96.13
13612;BME280;6877;51.436;6.774;2022-12-29T02:50:33;99792.69;;;10.10;95.00
13612;BME280;6877;51.436;6.774;2022-12-29T02:53:11;99785.75;;;10.09;94.62
13612;BME280;6877;51.436;6.774;2022-12-29T02:55:49;99775.97;;;10.16;93.94
13612;BME280;6877;51.436;6.774;2022-12-29T02:58:22;99780.88;;;10.25;92.91
13612;BME280;6877;51.436;6.774;2022-12-29T03:06:30;99781.66;;;10.29;92.63
13612;BME280;6877;51.436;6.774;2022-12-29T03:09:29;99787.84;;;10.26;92.46
13612;BME280;6877;51.436;6.774;2022-12-29T03:20:09;99774.59;;;10.31;91.85
13612;BME280;6877;51.436;6.774;2022-12-29T03:22:43;99772.81;;;10.33;92.38
13612;BME280;6877;51.436;6.774;2022-12-29T03:27:55;99757.97;;;10.33;92.28
13612;BME280;6877;51.436;6.774;2022-12-29T03:30:29;99759.50;;;10.40;91.55
13612;BME280;6877;51.436;6.774;2022-12-29T03:33:04;99751.69;;;10.39;91.94
13612;BME280;6877;51.436;6.774;2022-12-29T03:35:38;99762.31;;;10.34;92.29
13612;BME280;6877;51.436;6.774;2022-12-29T03:38:22;99756.28;;;10.32;92.84
13612;BME280;6877;51.436;6.774;2022-12-29T03:41:00;99751.78;;;10.36;92.54
13612;BME280;6877;51.436;6.774;2022-12-29T03:43:34;99751.78;;;10.36;92.80
13612;BME280;6877;51.436;6.774;2022-12-29T03:46:06;99751.88;;;10.33;92.95
13612;BME280;6877;51.436;6.774;2022-12-29T03:48:37;99737.59;;;10.43;92.58
13612;BME280;6877;51.436;6.774;2022-12-29T03:51:08;99741.94;;;10.44;92.15
13612;BME280;6877;51.436;6.774;2022-12-29T03:53:40;99740.28;;;10.41;92.80
13612;BME280;6877;51.436;6.774;2022-12-29T03:56:11;99728.22;;;10.37;93.07
13612;BME280;6877;51.436;6.774;2022-12-29T03:58:43;99727.34;;;10.37;92.97
13612;BME280;6877;51.436;6.774;2022-12-29T04:01:14;99718.50;;;10.41;92.83
13612;BME280;6877;51.436;6.774;2022-12-29T04:03:45;99721.16;;;10.39;93.37
13612;BME280;6877;51.436;6.774;2022-12-29T04:06:17;99731.72;;;10.36;93.33
13612;BME280;6877;51.436;6.774;2022-12-29T04:08:48;99711.53;;;10.40;93.22
13612;BME280;6877;51.436;6.774;2022-12-29T04:11:21;99710.00;;;10.34;93.41
13612;BME280;6877;51.436;6.774;2022-12-29T04:13:52;99704.19;;;10.26;94.00
13612;BME280;6877;51.436;6.774;2022-12-29T04:16:23;99693.03;;;10.19;94.25
13612;BME280;6877;51.436;6.774;2022-12-29T04:18:57;99691.13;;;10.25;93.78
13612;BME280;6877;51.436;6.774;2022-12-29T04:21:28;99690.88;;;10.32;93.09
13612;BME280;6877;51.436;6.774;2022-12-29T04:24:00;99696.63;;;10.43;92.49
13612;BME280;6877;51.436;6.774;2022-12-29T04:26:31;99693.72;;;10.51;91.72
13612;BME280;6877;51.436;6.774;2022-12-29T04:29:03;99703.16;;;10.55;91.17
13612;BME280;6877;51.436;6.774;2022-12-29T04:31:34;99692.56;;;10.60;90.88
13612;BME280;6877;51.436;6.774;2022-12-29T04:34:06;99700.28;;;10.63;90.99
13612;BME280;6877;51.436;6.774;2022-12-29T04:36:37;99694.13;;;10.64;90.44
13612;BME280;6877;51.436;6.774;2022-12-29T04:39:10;99694.84;;;10.69;89.57
13612;BME280;6877;51.436;6.774;2022-12-29T04:41:37;99687.66;;;10.74;89.11
13612;BME280;6877;51.436;6.774;2022-12-29T04:44:08;99696.03;;;10.84;88.27
13612;BME280;6877;51.436;6.774;2022-12-29T04:46:39;99679.38;;;10.86;88.04
13612;BME280;6877;51.436;6.774;2022-12-29T04:49:11;99687.09;;;10.89;87.68
13612;BME280;6877;51.436;6.774;2022-12-29T04:51:42;99715.06;;;10.89;87.21
13612;BME280;6877;51.436;6.774;2022-12-29T04:54:13;99696.66;;;10.90;86.33
13612;BME280;6877;51.436;6.774;2022-12-29T04:56:45;99708.16;;;10.86;86.66
13612;BME280;6877;51.436;6.774;2022-12-29T04:59:11;99707.25;;;10.87;86.61
13612;BME280;6877;51.436;6.774;2022-12-29T05:01:43;99689.72;;;10.89;85.67
13612;BME280;6877;51.436;6.774;2022-12-29T05:04:14;99717.81;;;10.84;85.95
13612;BME280;6877;51.436;6.774;2022-12-29T05:06:45;99717.16;;;10.79;86.68
13612;BME280;6877;51.436;6.774;2022-12-29T05:09:17;99713.69;;;10.79;86.05
13612;BME280;6877;51.436;6.774;2022-12-29T05:11:48;99714.44;;;10.82;85.68
13612;BME280;6877;51.436;6.774;2022-12-29T05:14:20;99738.75;;;10.84;84.66
13612;BME280;6877;51.436;6.774;2022-12-29T05:16:51;99732.53;;;10.88;84.76
13612;BME280;6877;51.436;6.774;2022-12-29T05:19:22;99745.66;;;10.87;84.10
13612;BME280;6877;51.436;6.774;2022-12-29T05:21:54;99759.69;;;10.84;84.69
13612;BME280;6877;51.436;6.774;2022-12-29T05:24:22;99752.88;;;10.80;84.71
13612;BME280;6877;51.436;6.774;2022-12-29T05:26:54;99752.94;;;10.79;83.68
13612;BME280;6877;51.436;6.774;2022-12-29T05:29:20;99751.31;;;10.75;83.67
13612;BME280;6877;51.436;6.774;2022-12-29T05:31:53;99756.44;;;10.78;82.75
13612;BME280;6877;51.436;6.774;2022-12-29T05:34:24;99766.03;;;10.79;82.05
13612;BME280;6877;51.436;6.774;2022-12-29T05:36:56;99763.34;;;10.80;81.08
13612;BME280;6877;51.436;6.774;2022-12-29T05:39:27;99762.66;;;10.75;81.60
13612;BME280;6877;51.436;6.774;2022-12-29T05:41:59;99759.47;;;10.65;81.37
13612;BME280;6877;51.436;6.774;2022-12-29T05:44:30;99762.28;;;10.61;80.36
13612;BME280;6877;51.436;6.774;2022-12-29T05:47:02;99786.94;;;10.54;80.43
13612;BME280;6877;51.436;6.774;2022-12-29T05:49:33;99776.59;;;10.51;81.06
13612;BME280;6877;51.436;6.774;2022-12-29T05:52:05;99789.78;;;10.46;81.30
13612;BME280;6877;51.436;6.774;2022-12-29T05:54:36;99791.63;;;10.44;82.41
13612;BME280;6877;51.436;6.774;2022-12-29T05:57:08;99778.91;;;10.33;83.26
13612;BME280;6877;51.436;6.774;2022-12-29T05:59:39;99785.31;;;10.23;84.48
13612;BME280;6877;51.436;6.774;2022-12-29T06:02:06;99793.59;;;10.09;85.23
13612;BME280;6877;51.436;6.774;2022-12-29T06:04:37;99809.59;;;9.98;86.83
13612;BME280;6877;51.436;6.774;2022-12-29T06:07:08;99792.50;;;9.88;87.63
13612;BME280;6877;51.436;6.774;2022-12-29T06:09:35;99810.97;;;9.82;88.45
13612;BME280;6877;51.436;6.774;2022-12-29T06:12:06;99814.63;;;9.77;89.64
13612;BME280;6877;51.436;6.774;2022-12-29T06:14:38;99812.25;;;9.69;89.92
13612;BME280;6877;51.436;6.774;2022-12-29T06:17:09;99824.50;;;9.67;90.79
13612;BME280;6877;51.436;6.774;2022-12-29T06:19:40;99824.75;;;9.59;91.41
13612;BME280;6877;51.436;6.774;2022-12-29T06:22:12;99825.78;;;9.54;92.39
13612;BME280;6877;51.436;6.774;2022-12-29T06:24:43;99828.38;;;9.54;92.78
13612;BME280;6877;51.436;6.774;2022-12-29T06:27:15;99836.88;;;9.62;92.96
13612;BME280;6877;51.436;6.774;2022-12-29T06:29:47;99850.53;;;9.70;92.76
13612;BME280;6877;51.436;6.774;2022-12-29T06:32:18;99844.31;;;9.74;92.71
13612;BME280;6877;51.436;6.774;2022-12-29T06:34:49;99847.72;;;9.78;92.70
13612;BME280;6877;51.436;6.774;2022-12-29T06:37:16;99842.41;;;9.81;92.51
13612;BME280;6877;51.436;6.774;2022-12-29T06:39:47;99842.25;;;9.85;91.79
13612;BME280;6877;51.436;6.774;2022-12-29T06:42:14;99835.13;;;9.90;91.16
13612;BME280;6877;51.436;6.774;2022-12-29T06:44:45;99834.13;;;9.94;90.00
13612;BME280;6877;51.436;6.774;2022-12-29T06:47:16;99836.59;;;9.99;89.28
13612;BME280;6877;51.436;6.774;2022-12-29T06:49:48;99841.78;;;10.01;88.68
13612;BME280;6877;51.436;6.774;2022-12-29T06:52:19;99853.91;;;10.03;88.73
13612;BME280;6877;51.436;6.774;2022-12-29T06:54:51;99848.59;;;10.06;88.06
13612;BME280;6877;51.436;6.774;2022-12-29T06:57:22;99844.31;;;10.04;88.52
13612;BME280;6877;51.436;6.774;2022-12-29T06:59:49;99854.75;;;10.04;88.04
13612;BME280;6877;51.436;6.774;2022-12-29T07:02:21;99846.81;;;10.07;87.77
13612;BME280;6877;51.436;6.774;2022-12-29T07:04:52;99852.75;;;10.12;87.17
13612;BME280;6877;51.436;6.774;2022-12-29T07:07:24;99847.25;;;10.21;86.48
13612;BME280;6877;51.436;6.774;2022-12-29T07:09:52;99855.91;;;10.23;86.14
13612;BME280;6877;51.436;6.774;2022-12-29T07:12:23;99861.13;;;10.23;86.44
13612;BME280;6877;51.436;6.774;2022-12-29T07:14:49;99865.53;;;10.21;86.11
13612;BME280;6877;51.436;6.774;2022-12-29T07:17:21;99853.22;;;10.26;85.86
13612;BME280;6877;51.436;6.774;2022-12-29T07:19:52;99861.06;;;10.26;85.31
13612;BME280;6877;51.436;6.774;2022-12-29T07:22:24;99867.13;;;10.28;85.19
13612;BME280;6877;51.436;6.774;2022-12-29T07:24:51;99879.28;;;10.29;85.09
13612;BME280;6877;51.436;6.774;2022-12-29T07:27:30;99877.56;;;10.28;85.43
13612;BME280;6877;51.436;6.774;2022-12-29T07:30:02;99878.50;;;10.26;85.16
13612;BME280;6877;51.436;6.774;2022-12-29T07:32:32;99875.13;;;10.22;85.39
13612;BME280;6877;51.436;6.774;2022-12-29T07:34:59;99888.97;;;10.24;84.34
13612;BME280;6877;51.436;6.774;2022-12-29T07:37:30;99883.75;;;10.24;84.83
13612;BME280;6877;51.436;6.774;2022-12-29T07:40:02;99890.81;;;10.22;84.08
13612;BME280;6877;51.436;6.774;2022-12-29T07:42:34;99884.44;;;10.31;82.05
13612;BME280;6877;51.436;6.774;2022-12-29T07:45:06;99904.31;;;10.36;81.62
13612;BME280;6877;51.436;6.774;2022-12-29T07:47:38;99893.84;;;10.38;80.97
13612;BME280;6877;51.436;6.774;2022-12-29T07:50:09;99900.84;;;10.37;81.29
13612;BME280;6877;51.436;6.774;2022-12-29T07:52:40;99898.22;;;10.37;80.42
13612;BME280;6877;51.436;6.774;2022-12-29T07:55:12;99909.63;;;10.35;81.00
13612;BME280;6877;51.436;6.774;2022-12-29T07:57:43;99905.97;;;10.40;78.84
13612;BME280;6877;51.436;6.774;2022-12-29T08:00:15;99913.19;;;10.32;79.58
13612;BME280;6877;51.436;6.774;2022-12-29T08:02:46;99907.28;;;10.24;80.13
13612;BME280;6877;51.436;6.774;2022-12-29T08:05:18;99918.66;;;10.23;79.55
13612;BME280;6877;51.436;6.774;2022-12-29T08:07:49;99918.81;;;10.18;80.54
13612;BME280;6877;51.436;6.774;2022-12-29T08:10:21;99917.06;;;10.19;80.13
13612;BME280;6877;51.436;6.774;2022-12-29T08:12:52;99929.22;;;10.20;80.00
13612;BME280;6877;51.436;6.774;2022-12-29T08:15:19;99930.91;;;10.21;80.05
13612;BME280;6877;51.436;6.774;2022-12-29T08:17:50;99942.38;;;10.17;79.40
13612;BME280;6877;51.436;6.774;2022-12-29T08:20:22;99933.50;;;10.23;79.41
13612;BME280;6877;51.436;6.774;2022-12-29T08:22:53;99933.34;;;10.29;78.91
13612;BME280;6877;51.436;6.774;2022-12-29T08:25:24;99936.81;;;10.29;78.96
13612;BME280;6877;51.436;6.774;2022-12-29T08:27:56;99935.97;;;10.29;79.03
13612;BME280;6877;51.436;6.774;2022-12-29T08:30:27;99934.19;;;10.29;79.07
13612;BME280;6877;51.436;6.774;2022-12-29T08:32:59;99942.88;;;10.31;79.12
13612;BME280;6877;51.436;6.774;2022-12-29T08:35:30;99935.81;;;10.33;78.83
13612;BME280;6877;51.436;6.774;2022-12-29T08:38:02;99944.41;;;10.37;79.27
13612;BME280;6877;51.436;6.774;2022-12-29T08:40:34;99952.34;;;10.34;79.46
13612;BME280;6877;51.436;6.774;2022-12-29T08:43:06;99951.50;;;10.33;79.36
13612;BME280;6877;51.436;6.774;2022-12-29T08:45:32;99954.97;;;10.34;79.05
13612;BME280;6877;51.436;6.774;2022-12-29T08:48:04;99959.41;;;10.32;79.62
13612;BME280;6877;51.436;6.774;2022-12-29T08:50:30;99958.56;;;10.31;79.57
13612;BME280;6877;51.436;6.774;2022-12-29T08:52:57;99962.03;;;10.32;79.62
13612;BME280;6877;51.436;6.774;2022-12-29T08:55:29;99958.09;;;10.47;78.21
13612;BME280;6877;51.436;6.774;2022-12-29T08:58:00;99953.03;;;10.40;78.18
13612;BME280;6877;51.436;6.774;2022-12-29T09:00:32;99957.56;;;10.35;77.38
13612;BME280;6877;51.436;6.774;2022-12-29T09:03:03;99963.78;;;10.31;78.40
13612;BME280;6877;51.436;6.774;2022-12-29T09:05:35;99970.72;;;10.32;77.20
13612;BME280;6877;51.436;6.774;2022-12-29T09:08:06;99969.44;;;10.46;77.37
13612;BME280;6877;51.436;6.774;2022-12-29T09:10:33;99970.63;;;10.92;75.68
13612;BME280;6877;51.436;6.774;2022-12-29T09:13:00;99979.16;;;10.97;75.60
13612;BME280;6877;51.436;6.774;2022-12-29T09:15:31;99959.34;;;11.16;74.88
13612;BME280;6877;51.436;6.774;2022-12-29T09:17:58;99960.13;;;11.18;73.98
13612;BME280;6877;51.436;6.774;2022-12-29T09:20:29;99980.69;;;11.04;74.35
13612;BME280;6877;51.436;6.774;2022-12-29T09:22:56;99968.19;;;10.85;75.85
13612;BME280;6877;51.436;6.774;2022-12-29T09:25:22;99983.47;;;10.71;76.56
13612;BME280;6877;51.436;6.774;2022-12-29T09:27:51;99983.84;;;10.59;76.91
13612;BME280;6877;51.436;6.774;2022-12-29T09:30:21;99976.19;;;10.53;76.91
13612;BME280;6877;51.436;6.774;2022-12-29T09:32:53;99987.75;;;10.46;76.86
13612;BME280;6877;51.436;6.774;2022-12-29T09:35:24;99981.81;;;10.40;77.06
13612;BME280;6877;51.436;6.774;2022-12-29T09:37:56;99980.81;;;10.44;78.31
13612;BME280;6877;51.436;6.774;2022-12-29T09:40:30;99984.03;;;10.53;77.05
13612;BME280;6877;51.436;6.774;2022-12-29T09:46:28;99989.13;;;10.57;77.05
13612;BME280;6877;51.436;6.774;2022-12-29T09:51:35;99981.03;;;10.65;75.57
13612;BME280;6877;51.436;6.774;2022-12-29T09:54:24;99984.63;;;10.62;74.68
13612;BME280;6877;51.436;6.774;2022-12-29T09:56:58;99982.78;;;10.66;74.72
13612;BME280;6877;51.436;6.774;2022-12-29T09:59:41;99991.41;;;10.68;74.27
13612;BME280;6877;51.436;6.774;2022-12-29T10:04:44;99989.38;;;10.78;74.48
13612;BME280;6877;51.436;6.774;2022-12-29T10:07:19;99983.25;;;10.79;74.35
13612;BME280;6877;51.436;6.774;2022-12-29T10:10:00;99985.56;;;10.88;73.49
13612;BME280;6877;51.436;6.774;2022-12-29T10:15:57;99988.78;;;10.96;71.94
13612;BME280;6877;51.436;6.774;2022-12-29T10:21:31;99982.66;;;11.24;70.89
13612;BME280;6877;51.436;6.774;2022-12-29T10:24:10;100004.22;;;11.32;70.68
13612;BME280;6877;51.436;6.774;2022-12-29T10:26:43;99992.75;;;11.34;69.23
13612;BME280;6877;51.436;6.774;2022-12-29T10:29:20;99993.16;;;11.22;69.82
13612;BME280;6877;51.436;6.774;2022-12-29T10:34:38;100003.44;;;11.02;69.55
13612;BME280;6877;51.436;6.774;2022-12-29T10:39:53;100012.31;;;10.98;70.07
13612;BME280;6877;51.436;6.774;2022-12-29T10:45:23;100016.63;;;10.99;69.24
13612;BME280;6877;51.436;6.774;2022-12-29T10:48:04;100025.25;;;11.02;69.74
13612;BME280;6877;51.436;6.774;2022-12-29T10:50:39;100028.59;;;11.07;69.36
13612;BME280;6877;51.436;6.774;2022-12-29T10:53:25;100024.94;;;11.11;69.18
13612;BME280;6877;51.436;6.774;2022-12-29T10:55:59;100032.88;;;11.10;69.08
13612;BME280;6877;51.436;6.774;2022-12-29T10:58:32;100030.84;;;11.18;70.11
13612;BME280;6877;51.436;6.774;2022-12-29T11:01:02;100035.84;;;11.26;69.60
13612;BME280;6877;51.436;6.774;2022-12-29T11:03:47;100027.00;;;11.28;69.05
13612;BME280;6877;51.436;6.774;2022-12-29T11:06:26;100041.88;;;11.28;69.16
13612;BME280;6877;51.436;6.774;2022-12-29T11:09:29;100037.69;;;11.22;69.01
13612;BME280;6877;51.436;6.774;2022-12-29T11:12:25;100029.81;;;11.22;69.50
13612;BME280;6877;51.436;6.774;2022-12-29T11:17:56;100047.06;;;11.29;69.60
13612;BME280;6877;51.436;6.774;2022-12-29T11:20:38;100041.66;;;11.34;68.87
13612;BME280;6877;51.436;6.774;2022-12-29T11:26:20;100060.81;;;11.36;68.69
13612;BME280;6877;51.436;6.774;2022-12-29T11:32:21;100063.38;;;11.37;68.17
13612;BME280;6877;51.436;6.774;2022-12-29T11:34:54;100063.72;;;11.53;67.45
13612;BME280;6877;51.436;6.774;2022-12-29T11:37:31;100060.03;;;11.60;67.24
13612;BME280;6877;51.436;6.774;2022-12-29T11:40:17;100063.22;;;11.69;66.78
13612;BME280;6877;51.436;6.774;2022-12-29T11:42:52;100050.94;;;11.71;67.69
13612;BME280;6877;51.436;6.774;2022-12-29T11:45:37;100060.97;;;11.58;65.94
13612;BME280;6877;51.436;6.774;2022-12-29T11:48:21;100073.16;;;11.59;66.71
13612;BME280;6877;51.436;6.774;2022-12-29T11:50:54;100088.78;;;11.62;66.85
13612;BME280;6877;51.436;6.774;2022-12-29T11:53:37;100078.28;;;11.62;66.76
13612;BME280;6877;51.436;6.774;2022-12-29T11:56:14;100091.47;;;11.60;67.18
13612;BME280;6877;51.436;6.774;2022-12-29T11:58:47;100074.53;;;11.71;67.08
13612;BME280;6877;51.436;6.774;2022-12-29T12:01:36;100075.81;;;11.86;65.82
13612;BME280;6877;51.436;6.774;2022-12-29T12:04:16;100080.13;;;11.87;66.69
13612;BME280;6877;51.436;6.774;2022-12-29T12:09:32;100087.25;;;11.81;65.71
13612;BME280;6877;51.436;6.774;2022-12-29T12:12:06;100086.72;;;11.72;65.81
13612;BME280;6877;51.436;6.774;2022-12-29T12:14:54;100094.88;;;11.63;66.59
13612;BME280;6877;51.436;6.774;2022-12-29T12:17:39;100078.28;;;11.62;66.94
13612;BME280;6877;51.436;6.774;2022-12-29T12:26:04;100109.00;;;11.32;66.09
13612;BME280;6877;51.436;6.774;2022-12-29T12:28:54;100118.09;;;11.20;66.18
13612;BME280;6877;51.436;6.774;2022-12-29T12:34:02;100113.97;;;11.13;66.58
13612;BME280;6877;51.436;6.774;2022-12-29T12:37:09;100103.59;;;11.08;67.58
13612;BME280;6877;51.436;6.774;2022-12-29T13:00:12;100136.50;;;10.87;68.26
13612;BME280;6877;51.436;6.774;2022-12-29T13:03:13;100143.41;;;10.92;68.30
13612;BME280;6877;51.436;6.774;2022-12-29T13:20:35;100156.44;;;10.93;68.62
13612;BME280;6877;51.436;6.774;2022-12-29T13:23:28;100146.97;;;10.87;68.31
13612;BME280;6877;51.436;6.774;2022-12-29T13:26:17;100157.50;;;10.86;69.03
13612;BME280;6877;51.436;6.774;2022-12-29T13:37:38;100171.72;;;10.77;69.31
13612;BME280;6877;51.436;6.774;2022-12-29T13:40:18;100166.66;;;10.71;69.61
13612;BME280;6877;51.436;6.774;2022-12-29T13:42:53;100161.59;;;10.65;70.05
13612;BME280;6877;51.436;6.774;2022-12-29T13:45:29;100162.44;;;10.65;69.97
13612;BME280;6877;51.436;6.774;2022-12-29T13:48:13;100168.56;;;10.66;69.47
13612;BME280;6877;51.436;6.774;2022-12-29T13:50:58;100180.09;;;10.59;70.88
13612;BME280;6877;51.436;6.774;2022-12-29T13:53:49;100176.19;;;10.42;72.57
13612;BME280;6877;51.436;6.774;2022-12-29T13:57:00;100166.88;;;10.31;72.86
13612;BME280;6877;51.436;6.774;2022-12-29T13:59:39;100167.72;;;10.33;71.92
13612;BME280;6877;51.436;6.774;2022-12-29T14:02:24;100171.19;;;10.33;72.19
13612;BME280;6877;51.436;6.774;2022-12-29T14:05:00;100172.94;;;10.34;71.16
13612;BME280;6877;51.436;6.774;2022-12-29T14:07:37;100166.00;;;10.32;72.57
13612;BME280;6877;51.436;6.774;2022-12-29T14:15:37;100188.75;;;9.94;75.71
13612;BME280;6877;51.436;6.774;2022-12-29T14:18:23;100185.53;;;9.83;76.58
13612;BME280;6877;51.436;6.774;2022-12-29T14:21:09;100194.34;;;9.79;75.98
13612;BME280;6877;51.436;6.774;2022-12-29T14:23:44;100183.75;;;9.83;75.41
13612;BME280;6877;51.436;6.774;2022-12-29T14:28:48;100193.06;;;9.95;74.76
13612;BME280;6877;51.436;6.774;2022-12-29T14:37:01;100199.47;;;10.17;71.83
13612;BME280;6877;51.436;6.774;2022-12-29T14:42:49;100197.69;;;10.19;71.07
13612;BME280;6877;51.436;6.774;2022-12-29T14:47:52;100202.94;;;10.18;71.00
13612;BME280;6877;51.436;6.774;2022-12-29T14:50:35;100207.31;;;10.17;70.71
13612;BME280;6877;51.436;6.774;2022-12-29T14:53:42;100196.00;;;10.17;71.04
13612;BME280;6877;51.436;6.774;2022-12-29T14:56:16;100203.91;;;10.15;71.28
13612;BME280;6877;51.436;6.774;2022-12-29T14:59:01;100199.69;;;10.10;71.52
13612;BME280;6877;51.436;6.774;2022-12-29T15:01:45;100203.22;;;10.07;71.11
13612;BME280;6877;51.436;6.774;2022-12-29T15:04:23;100208.50;;;10.06;71.19
13612;BME280;6877;51.436;6.774;2022-12-29T15:06:51;100213.81;;;10.03;71.60
13612;BME280;6877;51.436;6.774;2022-12-29T15:09:33;100221.66;;;10.01;71.82
13612;BME280;6877;51.436;6.774;2022-12-29T15:14:59;100221.66;;;10.01;71.56
13612;BME280;6877;51.436;6.774;2022-12-29T15:17:32;100222.66;;;9.97;72.14
13612;BME280;6877;51.436;6.774;2022-12-29T15:20:21;100234.97;;;9.92;72.22
13612;BME280;6877;51.436;6.774;2022-12-29T15:23:02;100238.50;;;9.89;75.29
13612;BME280;6877;51.436;6.774;2022-12-29T15:25:35;100221.69;;;9.64;78.38
13612;BME280;6877;51.436;6.774;2022-12-29T15:28:11;100229.31;;;9.34;80.54
13612;BME280;6877;51.436;6.774;2022-12-29T15:31:27;100222.91;;;9.09;82.43
13612;BME280;6877;51.436;6.774;2022-12-29T15:34:20;100217.88;;;8.99;81.87
13612;BME280;6877;51.436;6.774;2022-12-29T15:36:52;100233.47;;;9.02;81.04
13612;BME280;6877;51.436;6.774;2022-12-29T15:39:29;100232.63;;;9.00;82.43
13612;BME280;6877;51.436;6.774;2022-12-29T15:42:44;100233.47;;;9.02;80.84
13612;BME280;6877;51.436;6.774;2022-12-29T15:45:21;100236.97;;;9.01;80.37
13612;BME280;6877;51.436;6.774;2022-12-29T15:47:58;100238.69;;;9.02;79.66
13612;BME280;6877;51.436;6.774;2022-12-29T15:50:31;100244.78;;;9.01;79.70
13612;BME280;6877;51.436;6.774;2022-12-29T15:53:10;100257.78;;;9.04;78.20
13612;BME280;6877;51.436;6.774;2022-12-29T15:55:43;100247.28;;;9.08;78.38
13612;BME280;6877;51.436;6.774;2022-12-29T15:58:25;100264.63;;;9.12;78.41
13612;BME280;6877;51.436;6.774;2022-12-29T16:01:00;100266.50;;;9.05;77.64
13612;BME280;6877;51.436;6.774;2022-12-29T16:03:33;100264.69;;;9.09;75.74
13612;BME280;6877;51.436;6.774;2022-12-29T16:08:37;100264.00;;;8.99;76.28
13612;BME280;6877;51.436;6.774;2022-12-29T16:11:23;100277.19;;;8.91;76.73
13612;BME280;6877;51.436;6.774;2022-12-29T16:13:57;100266.81;;;8.88;76.44
13612;BME280;6877;51.436;6.774;2022-12-29T16:16:35;100265.25;;;8.78;77.06
13612;BME280;6877;51.436;6.774;2022-12-29T16:19:18;100274.97;;;8.70;77.14
13612;BME280;6877;51.436;6.774;2022-12-29T16:21:52;100268.97;;;8.66;78.00
13612;BME280;6877;51.436;6.774;2022-12-29T16:24:26;100274.91;;;8.73;78.33
13612;BME280;6877;51.436;6.774;2022-12-29T16:27:20;100275.66;;;8.81;77.71